Fort Valley, Georgia
Current Conditions -  °F | °C
As of 1:15 PM on Saturday 22 Nov 2014 (Local Time) from KPXE Reporting Station
Scattered Clouds Scattered Clouds  
Wind Chill: 66°   Ceiling: Unl
Heat Index: 66°   Visibility: 10mi
Dew Point: 37°   Wind: 13mph
Humidity: 34%   Direction: 120°ESE
Pressure: 30.34"   Gusts: 16mph
Location:  32.55°N, 83.89°W
Report Text: KPXE 221815Z AUTO 12011G14KT 10SM SCT060 SCT075 19/03 A3034 RMK AO2 T01880025
Loading
Personal Weather Stations






























Interactive Weather Map New forecast layout! Learn more

10-Day Weather Forecast

Advertisements
Track Severe Weather on mobile